Garden City, South Carolina
Current Conditions -  °F | °C
As of 9:45 AM on Thursday 23 Oct 2014 (Local Time) from KMYR Reporting Station
Clear Clear  
Wind Chill: 54°   Ceiling: Unl
Heat Index: 54°   Visibility: 10mi
Dew Point: 43°   Wind: 9mph
Humidity: 67%   Direction: 340°NNW
Pressure: 30.06"   Gusts: NA
Location:  33.5501°N, 79.0592°W
Report Text: KMYR 231345Z 34008KT 10SM CLR 12/06 A3006
Loading
Personal Weather Stations






























Interactive Weather Map
Tropical Storm Tracking
New forecast layout! Learn more

10-Day Weather Forecast

Advertisements
Track Severe Weather on mobile